Time;durP1;ratioP1;P1;durP2;ratioP2;P2;SDS_P1;SDS_P2;PMS_P1;PMS_P2;Temp;Humidity;BMP_temperature;BMP_pressure;BME280_temperature;BME280_humidity;BME280_pressure;Samples;Min_cycle;Max_cycle;Signal;HPM_P1;HPM_P2
2022/11/11 00:02:08;;;;;;;39.05;23.80;;;;;;;;;;4977096;28;20134;-71
2022/11/11 00:04:52;;;;;;;40.47;24.52;;;;;;;;;;4977055;28;20565;-73
2022/11/11 00:07:37;;;;;;;37.22;24.23;;;;;;;;;;4976247;28;20066;-73
2022/11/11 00:10:21;;;;;;;35.05;22.60;;;;;;;;;;4976915;28;20042;-73
2022/11/11 00:13:17;;;;;;;35.95;22.85;;;;;;;;;;4977133;28;20181;-72
2022/11/11 00:16:05;;;;;;;35.65;22.85;;;;;;;;;;4976813;28;20058;-72
2022/11/11 00:25:21;;;;;;;31.13;21.92;;;;;;;;;;4976302;28;20049;-73
2022/11/11 00:28:06;;;;;;;29.83;21.48;;;;;;;;;;4976740;28;20505;-73
2022/11/11 00:30:50;;;;;;;35.15;24.10;;;;;;;;;;4976800;28;20065;-73
2022/11/11 00:33:39;;;;;;;35.60;24.33;;;;;;;;;;4977574;28;20041;-73
2022/11/11 00:36:23;;;;;;;37.75;25.00;;;;;;;;;;4975898;28;20041;-73
2022/11/11 00:39:07;;;;;;;38.20;24.48;;;;;;;;;;4976436;28;20402;-73
2022/11/11 00:41:52;;;;;;;37.40;25.08;;;;;;;;;;5012308;23;20056;-73
2022/11/11 00:44:36;;;;;;;37.90;25.90;;;;;;;;;;5014984;28;20116;-73
2022/11/11 00:53:30;;;;;;;35.50;25.00;;;;;;;;;;5015254;28;20033;-74
2022/11/11 00:56:26;;;;;;;41.88;25.73;;;;;;;;;;5015202;28;20048;-74
2022/11/11 00:59:10;;;;;;;40.65;26.05;;;;;;;;;;5015266;28;20390;-74
2022/11/11 01:01:56;;;;;;;39.58;26.48;;;;;;;;;;5013842;28;20052;-73
2022/11/11 01:04:40;;;;;;;41.92;26.80;;;;;;;;;;5015303;28;20536;-73
2022/11/11 01:07:24;;;;;;;40.85;25.98;;;;;;;;;;5013836;28;20040;-73
2022/11/11 01:10:08;;;;;;;43.63;26.70;;;;;;;;;;5014973;28;20135;-72
2022/11/11 01:13:10;;;;;;;42.92;26.17;;;;;;;;;;5015293;28;20109;-72
2022/11/11 01:16:05;;;;;;;45.88;28.58;;;;;;;;;;5013760;28;20568;-72
2022/11/11 01:18:51;;;;;;;48.33;29.30;;;;;;;;;;5014888;28;20509;-73
2022/11/11 01:21:35;;;;;;;46.40;27.30;;;;;;;;;;5014679;28;20048;-72
2022/11/11 01:24:22;;;;;;;43.20;26.85;;;;;;;;;;5014659;28;20080;-73
2022/11/11 01:27:06;;;;;;;45.20;26.60;;;;;;;;;;5014814;28;20115;-73
2022/11/11 01:29:51;;;;;;;47.00;28.10;;;;;;;;;;5013416;28;20081;-73
2022/11/11 01:32:35;;;;;;;41.58;25.52;;;;;;;;;;5014521;28;20497;-73
2022/11/11 01:35:19;;;;;;;39.45;25.60;;;;;;;;;;5013611;28;20048;-73
2022/11/11 01:38:03;;;;;;;39.15;25.30;;;;;;;;;;5014557;28;20045;-73
2022/11/11 01:40:50;;;;;;;39.22;24.85;;;;;;;;;;5014032;28;20041;-73
2022/11/11 01:43:34;;;;;;;39.47;25.27;;;;;;;;;;5014278;28;20059;-73
2022/11/11 01:46:27;;;;;;;36.65;24.17;;;;;;;;;;5014400;28;20044;-70
2022/11/11 01:49:17;;;;;;;36.50;24.33;;;;;;;;;;5014153;28;20099;-70
2022/11/11 01:52:17;;;;;;;39.58;24.63;;;;;;;;;;4999287;28;20033;-70
2022/11/11 01:55:04;;;;;;;39.55;24.27;;;;;;;;;;5014236;28;20076;-70
2022/11/11 01:57:50;;;;;;;39.53;23.63;;;;;;;;;;5014140;28;20543;-71
2022/11/11 02:00:34;;;;;;;42.17;24.55;;;;;;;;;;5014116;28;20401;-71
2022/11/11 02:03:20;;;;;;;38.95;24.27;;;;;;;;;;5013863;28;20037;-70
2022/11/11 02:06:04;;;;;;;39.92;25.60;;;;;;;;;;5014198;28;20040;-70
2022/11/11 02:08:49;;;;;;;43.05;25.23;;;;;;;;;;4999272;28;20092;-71
2022/11/11 02:14:41;;;;;;;40.22;24.75;;;;;;;;;;5014125;28;20032;-71
2022/11/11 02:17:27;;;;;;;39.03;24.02;;;;;;;;;;4999372;28;20040;-71
2022/11/11 02:20:13;;;;;;;42.40;24.75;;;;;;;;;;5013942;28;20072;-71
2022/11/11 02:23:09;;;;;;;39.13;24.65;;;;;;;;;;5013926;28;20068;-70
2022/11/11 02:25:54;;;;;;;39.58;23.98;;;;;;;;;;4999026;28;20493;-70
2022/11/11 02:28:40;;;;;;;38.97;23.48;;;;;;;;;;5014212;28;20041;-70
2022/11/11 02:31:26;;;;;;;39.90;23.08;;;;;;;;;;5014821;28;20393;-70
2022/11/11 02:34:10;;;;;;;41.25;25.48;;;;;;;;;;5018268;28;20104;-70
2022/11/11 02:36:54;;;;;;;37.58;23.27;;;;;;;;;;5018215;28;20061;-71
2022/11/11 02:39:41;;;;;;;39.60;22.83;;;;;;;;;;5017847;28;20132;-70
2022/11/11 02:42:25;;;;;;;36.88;22.75;;;;;;;;;;5009769;28;20061;-71
2022/11/11 02:45:09;;;;;;;36.85;22.23;;;;;;;;;;5016756;28;20044;-71
2022/11/11 02:47:53;;;;;;;36.90;21.40;;;;;;;;;;5017601;28;20083;-72
2022/11/11 02:50:38;;;;;;;37.00;22.88;;;;;;;;;;5017693;28;20045;-70
2022/11/11 02:53:22;;;;;;;34.80;21.63;;;;;;;;;;5017302;28;20084;-70
2022/11/11 02:56:07;;;;;;;38.78;22.77;;;;;;;;;;5017470;28;20548;-70
2022/11/11 02:58:50;;;;;;;40.78;23.63;;;;;;;;;;5017256;28;20129;-70
2022/11/11 03:01:35;;;;;;;37.90;23.15;;;;;;;;;;5016433;28;20520;-71
2022/11/11 03:04:18;;;;;;;42.50;23.95;;;;;;;;;;5016422;28;20045;-71
2022/11/11 03:07:03;;;;;;;38.00;23.73;;;;;;;;;;5017196;28;20072;-71
2022/11/11 03:09:47;;;;;;;38.58;22.58;;;;;;;;;;5016835;28;20109;-71
2022/11/11 03:12:31;;;;;;;41.67;22.92;;;;;;;;;;5016967;28;20524;-71
2022/11/11 03:15:14;;;;;;;39.10;23.02;;;;;;;;;;5017447;28;20100;-71
2022/11/11 03:17:58;;;;;;;41.03;23.55;;;;;;;;;;5017382;28;20048;-70
2022/11/11 03:23:47;;;;;;;40.47;22.38;;;;;;;;;;5017000;28;20485;-70
2022/11/11 03:26:32;;;;;;;36.13;22.52;;;;;;;;;;5017037;28;20557;-70
2022/11/11 03:29:15;;;;;;;42.05;22.70;;;;;;;;;;5016417;28;20509;-71
2022/11/11 03:31:59;;;;;;;35.97;23.15;;;;;;;;;;5016780;28;20041;-70
2022/11/11 03:34:43;;;;;;;40.47;22.60;;;;;;;;;;5017079;28;20037;-70
2022/11/11 03:40:31;;;;;;;42.33;22.83;;;;;;;;;;5017027;28;20126;-71
2022/11/11 03:43:16;;;;;;;37.63;22.55;;;;;;;;;;5015102;28;20096;-71
2022/11/11 03:46:01;;;;;;;37.97;22.65;;;;;;;;;;5017063;28;20168;-71
2022/11/11 03:48:45;;;;;;;36.05;22.08;;;;;;;;;;5016228;28;20057;-71
2022/11/11 03:51:29;;;;;;;38.30;22.65;;;;;;;;;;5016225;28;20092;-70
2022/11/11 03:54:13;;;;;;;37.72;21.90;;;;;;;;;;5016156;28;20037;-70
2022/11/11 04:00:01;;;;;;;37.30;21.75;;;;;;;;;;5015812;28;20572;-70
2022/11/11 04:11:53;;;;;;;31.80;20.00;;;;;;;;;;5015860;28;20041;-70
2022/11/11 04:17:41;;;;;;;32.58;20.00;;;;;;;;;;5016001;28;20041;-70
2022/11/11 04:23:47;;;;;;;30.17;19.05;;;;;;;;;;4994802;28;20045;-70
2022/11/11 04:26:31;;;;;;;34.17;20.88;;;;;;;;;;4994014;28;20045;-70
2022/11/11 04:29:27;;;;;;;32.92;20.77;;;;;;;;;;5012517;28;20072;-70
2022/11/11 04:35:15;;;;;;;33.72;19.77;;;;;;;;;;5015715;28;20088;-70
2022/11/11 04:41:07;;;;;;;30.52;18.52;;;;;;;;;;5008173;28;20041;-70
2022/11/11 04:46:54;;;;;;;32.00;19.08;;;;;;;;;;5015227;28;20517;-70
2022/11/11 04:49:39;;;;;;;30.48;17.70;;;;;;;;;;5014974;28;20065;-70
2022/11/11 04:52:26;;;;;;;27.50;17.55;;;;;;;;;;5015078;28;20127;-70
2022/11/11 04:58:13;;;;;;;30.48;18.00;;;;;;;;;;5014986;28;20116;-70
2022/11/11 05:00:58;;;;;;;29.77;18.08;;;;;;;;;;5015326;28;20097;-70
2022/11/11 05:03:42;;;;;;;27.15;16.92;;;;;;;;;;5013912;28;20465;-69
2022/11/11 05:09:28;;;;;;;25.33;16.40;;;;;;;;;;5014570;28;20116;-69
2022/11/11 05:12:12;;;;;;;26.67;17.02;;;;;;;;;;5015546;28;20084;-71
2022/11/11 05:21:19;;;;;;;27.30;16.42;;;;;;;;;;5014647;28;20520;-70
2022/11/11 05:27:06;;;;;;;25.75;16.98;;;;;;;;;;5015006;28;20095;-71
2022/11/11 05:29:51;;;;;;;26.63;16.35;;;;;;;;;;5013595;28;20083;-71
2022/11/11 05:32:35;;;;;;;26.67;17.02;;;;;;;;;;5014650;28;20045;-70
2022/11/11 05:35:19;;;;;;;27.85;17.08;;;;;;;;;;5014673;28;20045;-70
2022/11/11 05:41:08;;;;;;;24.05;16.25;;;;;;;;;;5014127;28;20543;-72
2022/11/11 05:43:52;;;;;;;27.10;16.67;;;;;;;;;;5012663;28;20037;-72
2022/11/11 05:46:41;;;;;;;26.83;16.55;;;;;;;;;;5013379;28;20397;-73
2022/11/11 05:49:25;;;;;;;27.45;16.48;;;;;;;;;;5014036;28;20071;-73
2022/11/11 05:52:11;;;;;;;26.33;17.35;;;;;;;;;;5012763;28;20044;-73
2022/11/11 05:54:55;;;;;;;25.52;16.38;;;;;;;;;;5014161;28;20088;-73
2022/11/11 05:57:44;;;;;;;25.63;15.90;;;;;;;;;;5012365;28;20045;-71
2022/11/11 06:00:28;;;;;;;23.30;16.13;;;;;;;;;;5012557;28;20512;-70
2022/11/11 06:03:12;;;;;;;26.50;16.27;;;;;;;;;;5010887;28;20500;-70
2022/11/11 06:05:56;;;;;;;27.08;16.08;;;;;;;;;;5010187;28;20068;-70
2022/11/11 06:08:40;;;;;;;26.88;17.42;;;;;;;;;;5012234;28;20133;-70
2022/11/11 06:11:24;;;;;;;28.88;17.60;;;;;;;;;;5011006;28;20080;-70
2022/11/11 06:14:10;;;;;;;24.42;16.67;;;;;;;;;;5011973;28;20474;-70
2022/11/11 06:16:54;;;;;;;28.85;16.85;;;;;;;;;;5012198;28;20037;-70
2022/11/11 06:19:38;;;;;;;25.00;16.67;;;;;;;;;;5011996;28;20045;-70
2022/11/11 06:22:55;;;;;;;28.48;17.35;;;;;;;;;;5012113;28;20040;-70
2022/11/11 06:28:31;;;;;;;27.60;16.85;;;;;;;;;;5011936;28;20044;-70
2022/11/11 06:31:17;;;;;;;25.80;17.45;;;;;;;;;;5011795;28;20089;-70
2022/11/11 06:34:01;;;;;;;25.58;16.65;;;;;;;;;;5012160;28;20041;-70
2022/11/11 06:36:45;;;;;;;28.63;17.48;;;;;;;;;;5009889;28;20053;-70
2022/11/11 06:39:29;;;;;;;27.38;16.50;;;;;;;;;;5012072;28;20540;-70
2022/11/11 06:42:13;;;;;;;24.15;15.75;;;;;;;;;;5011681;28;20081;-72
2022/11/11 06:44:59;;;;;;;29.45;16.38;;;;;;;;;;5012259;28;20037;-71
2022/11/11 06:47:42;;;;;;;29.88;18.15;;;;;;;;;;5010528;28;20041;-71
2022/11/11 06:50:27;;;;;;;26.17;16.85;;;;;;;;;;5011856;28;20041;-71
2022/11/11 06:53:13;;;;;;;25.40;16.98;;;;;;;;;;5011554;28;20790;-71
2022/11/11 06:55:57;;;;;;;39.90;16.55;;;;;;;;;;5011406;28;20457;-71
2022/11/11 06:58:41;;;;;;;26.70;16.60;;;;;;;;;;5011378;28;20524;-71
2022/11/11 07:01:25;;;;;;;27.33;18.27;;;;;;;;;;5010088;28;20057;-71
2022/11/11 07:04:09;;;;;;;30.25;18.50;;;;;;;;;;5010469;28;20546;-71
2022/11/11 07:06:53;;;;;;;30.63;18.45;;;;;;;;;;5011469;28;20100;-75
2022/11/11 07:09:36;;;;;;;30.50;18.55;;;;;;;;;;5009868;28;20053;-73
2022/11/11 07:12:21;;;;;;;30.30;19.23;;;;;;;;;;5011271;28;20435;-72
2022/11/11 07:15:05;;;;;;;31.05;18.75;;;;;;;;;;5008954;28;20060;-68
2022/11/11 07:17:49;;;;;;;28.55;18.17;;;;;;;;;;5013214;28;20041;-73
2022/11/11 07:20:33;;;;;;;30.35;18.52;;;;;;;;;;5016250;28;20038;-74
2022/11/11 07:23:17;;;;;;;34.65;19.52;;;;;;;;;;5015407;28;20060;-75
2022/11/11 07:26:00;;;;;;;30.58;19.90;;;;;;;;;;5015413;28;20033;-73
2022/11/11 07:28:44;;;;;;;32.00;20.45;;;;;;;;;;5015092;28;20111;-73
2022/11/11 07:31:29;;;;;;;29.02;19.38;;;;;;;;;;5016597;28;20088;-74
2022/11/11 07:34:13;;;;;;;36.25;22.27;;;;;;;;;;5016446;28;20497;-73
2022/11/11 07:36:57;;;;;;;33.53;22.52;;;;;;;;;;5016082;28;20410;-73
2022/11/11 07:39:40;;;;;;;36.17;22.33;;;;;;;;;;5016322;28;20056;-73
2022/11/11 07:42:24;;;;;;;43.17;25.23;;;;;;;;;;5013689;28;20048;-73
2022/11/11 07:45:11;;;;;;;40.05;23.30;;;;;;;;;;5016615;28;20048;-73
2022/11/11 07:47:55;;;;;;;37.13;21.70;;;;;;;;;;5015904;28;20061;-73
2022/11/11 07:50:42;;;;;;;30.80;19.58;;;;;;;;;;5015902;28;20137;-74
2022/11/11 07:53:27;;;;;;;26.65;17.27;;;;;;;;;;5014738;28;20035;-74
2022/11/11 07:56:13;;;;;;;25.88;17.48;;;;;;;;;;5016244;28;20095;-73
2022/11/11 07:58:57;;;;;;;26.45;17.05;;;;;;;;;;5015735;28;20037;-75
2022/11/11 08:01:41;;;;;;;19.23;13.98;;;;;;;;;;5014049;28;20401;-75
2022/11/11 08:04:24;;;;;;;23.92;15.80;;;;;;;;;;5014619;28;20037;-75
2022/11/11 08:07:10;;;;;;;24.83;16.35;;;;;;;;;;5015869;28;20072;-76
2022/11/11 08:09:54;;;;;;;18.08;14.32;;;;;;;;;;5013683;28;20084;-75
2022/11/11 08:15:43;;;;;;;22.42;15.75;;;;;;;;;;5015755;28;20440;-74
2022/11/11 08:18:27;;;;;;;25.73;17.08;;;;;;;;;;5015121;28;20040;-74
2022/11/11 08:21:12;;;;;;;21.92;14.48;;;;;;;;;;5013503;28;20052;-73
2022/11/11 08:23:56;;;;;;;19.65;13.38;;;;;;;;;;5011549;28;20052;-73
2022/11/11 08:26:40;;;;;;;21.15;14.23;;;;;;;;;;5011178;28;20466;-72
2022/11/11 08:29:24;;;;;;;18.83;13.82;;;;;;;;;;5010349;28;20092;-72
2022/11/11 08:32:08;;;;;;;18.75;12.93;;;;;;;;;;5010981;28;20041;-73
2022/11/11 08:34:52;;;;;;;23.27;14.70;;;;;;;;;;5011251;28;20509;-72
2022/11/11 08:37:36;;;;;;;20.63;14.20;;;;;;;;;;5011053;28;20524;-73
2022/11/11 08:40:20;;;;;;;24.15;15.13;;;;;;;;;;5009740;28;20049;-72
2022/11/11 08:43:04;;;;;;;19.80;14.05;;;;;;;;;;5011251;28;20045;-72
2022/11/11 08:45:51;;;;;;;18.27;13.02;;;;;;;;;;5014276;28;20044;-72
2022/11/11 08:48:35;;;;;;;21.67;13.23;;;;;;;;;;5014185;28;20425;-72
2022/11/11 08:51:19;;;;;;;16.83;11.88;;;;;;;;;;5014217;28;20053;-72
2022/11/11 08:54:04;;;;;;;14.50;9.52;;;;;;;;;;5014084;28;20029;-72
2022/11/11 08:56:47;;;;;;;13.73;9.60;;;;;;;;;;5014177;28;20080;-72
2022/11/11 08:59:32;;;;;;;16.25;9.88;;;;;;;;;;5014165;28;20072;-73
2022/11/11 09:02:17;;;;;;;14.25;9.15;;;;;;;;;;5014620;28;20045;-72
2022/11/11 09:05:01;;;;;;;14.52;10.32;;;;;;;;;;5015218;28;20045;-72
2022/11/11 09:07:44;;;;;;;11.43;8.82;;;;;;;;;;5015411;28;20056;-72
2022/11/11 09:10:29;;;;;;;13.70;10.30;;;;;;;;;;5014633;28;20454;-73
2022/11/11 09:13:12;;;;;;;12.32;7.82;;;;;;;;;;5014798;28;20041;-72
2022/11/11 09:15:58;;;;;;;13.77;9.25;;;;;;;;;;5015430;28;20077;-72
2022/11/11 09:18:42;;;;;;;11.85;7.63;;;;;;;;;;5015002;28;20571;-72
2022/11/11 09:21:26;;;;;;;13.00;9.68;;;;;;;;;;5014849;28;20100;-72
2022/11/11 09:24:10;;;;;;;9.73;6.60;;;;;;;;;;5014942;28;20049;-72
2022/11/11 09:26:55;;;;;;;8.93;6.32;;;;;;;;;;5015266;28;20041;-72
2022/11/11 09:29:39;;;;;;;9.45;6.00;;;;;;;;;;5014232;28;20040;-73
2022/11/11 09:32:23;;;;;;;11.13;8.27;;;;;;;;;;5014273;28;20092;-73
2022/11/11 09:35:07;;;;;;;10.70;6.78;;;;;;;;;;5013679;28;20504;-73
2022/11/11 09:38:00;;;;;;;10.00;7.03;;;;;;;;;;5013254;28;20133;-72
2022/11/11 09:40:57;;;;;;;11.90;6.63;;;;;;;;;;5013271;28;20045;-73
2022/11/11 09:43:58;;;;;;;8.50;6.43;;;;;;;;;;4996381;28;20556;-72
2022/11/11 09:46:52;;;;;;;10.63;5.75;;;;;;;;;;4996945;28;20390;-73
2022/11/11 09:49:59;;;;;;;8.65;6.38;;;;;;;;;;5010998;28;20091;-73
2022/11/11 09:52:50;;;;;;;11.65;6.65;;;;;;;;;;5011066;28;20060;-73
2022/11/11 09:55:40;;;;;;;10.27;7.50;;;;;;;;;;5010797;28;20048;-73
2022/11/11 09:58:28;;;;;;;9.10;6.00;;;;;;;;;;5010958;28;20437;-74
2022/11/11 10:01:15;;;;;;;7.93;5.90;;;;;;;;;;5011137;28;20386;-74
2022/11/11 10:04:03;;;;;;;9.38;6.65;;;;;;;;;;4996046;28;20457;-74
2022/11/11 10:06:49;;;;;;;10.35;6.70;;;;;;;;;;4997476;28;20040;-74
2022/11/11 10:09:40;;;;;;;8.32;5.65;;;;;;;;;;5014090;28;20088;-74
2022/11/11 10:12:27;;;;;;;9.63;6.60;;;;;;;;;;5014564;28;20059;-73
2022/11/11 10:15:13;;;;;;;11.90;6.50;;;;;;;;;;5014528;28;20378;-73
2022/11/11 10:18:06;;;;;;;8.82;6.63;;;;;;;;;;5014498;28;20119;-73
2022/11/11 10:20:56;;;;;;;10.45;4.78;;;;;;;;;;5014471;28;20083;-73
2022/11/11 10:23:42;;;;;;;8.75;5.30;;;;;;;;;;5014208;28;20045;-73
2022/11/11 10:26:28;;;;;;;7.88;5.00;;;;;;;;;;5014183;28;20040;-73
2022/11/11 10:29:20;;;;;;;8.57;4.88;;;;;;;;;;4999121;28;20092;-73
2022/11/11 10:32:10;;;;;;;11.15;5.63;;;;;;;;;;5014133;28;20110;-73
2022/11/11 10:35:04;;;;;;;6.97;5.07;;;;;;;;;;5014391;28;20413;-73
2022/11/11 10:37:53;;;;;;;7.38;5.03;;;;;;;;;;4999260;28;20076;-73
2022/11/11 10:40:43;;;;;;;7.15;4.82;;;;;;;;;;5013956;28;20389;-73
2022/11/11 10:43:28;;;;;;;5.85;4.28;;;;;;;;;;5014392;28;20112;-73
2022/11/11 10:46:17;;;;;;;6.45;3.97;;;;;;;;;;4999192;28;20096;-73
2022/11/11 10:49:01;;;;;;;6.78;4.45;;;;;;;;;;5013825;28;20073;-73
2022/11/11 10:51:44;;;;;;;8.50;4.78;;;;;;;;;;4999500;28;20123;-74
2022/11/11 10:54:33;;;;;;;6.57;4.82;;;;;;;;;;5002777;28;20049;-74
2022/11/11 10:57:37;;;;;;;7.57;4.40;;;;;;;;;;5003096;28;20057;-74
2022/11/11 11:00:21;;;;;;;5.43;4.60;;;;;;;;;;5017844;28;20052;-74
2022/11/11 11:03:20;;;;;;;7.20;4.82;;;;;;;;;;5017306;28;20092;-74
2022/11/11 11:06:11;;;;;;;7.88;4.72;;;;;;;;;;5017460;28;20449;-74
2022/11/11 11:09:19;;;;;;;10.98;5.05;;;;;;;;;;5016936;28;20049;-74
2022/11/11 11:12:07;;;;;;;9.52;4.90;;;;;;;;;;5016442;28;20041;-71
2022/11/11 11:14:53;;;;;;;9.57;5.10;;;;;;;;;;5017596;28;20068;-71
2022/11/11 11:17:41;;;;;;;10.38;5.28;;;;;;;;;;5017270;28;20079;-71
2022/11/11 11:20:25;;;;;;;10.13;5.15;;;;;;;;;;5017479;28;20099;-71
2022/11/11 11:23:09;;;;;;;6.93;5.35;;;;;;;;;;5017426;28;20072;-71
2022/11/11 11:25:54;;;;;;;7.72;4.82;;;;;;;;;;5017406;28;20034;-71
2022/11/11 11:28:54;;;;;;;8.65;5.88;;;;;;;;;;5017191;28;20048;-71
2022/11/11 11:31:39;;;;;;;6.22;4.68;;;;;;;;;;5017036;28;20048;-71
2022/11/11 11:34:41;;;;;;;9.52;4.63;;;;;;;;;;5017252;28;20053;-71
2022/11/11 11:37:26;;;;;;;6.63;4.32;;;;;;;;;;5017107;28;20054;-71
2022/11/11 11:40:11;;;;;;;7.28;4.30;;;;;;;;;;5017125;28;20123;-71
2022/11/11 11:42:55;;;;;;;5.20;4.18;;;;;;;;;;5016255;28;20057;-71
2022/11/11 11:45:39;;;;;;;8.98;4.40;;;;;;;;;;5016744;28;20485;-71
2022/11/11 11:48:23;;;;;;;4.53;3.58;;;;;;;;;;5015898;28;20088;-71
2022/11/11 11:51:07;;;;;;;5.07;3.70;;;;;;;;;;5016374;28;20044;-71
2022/11/11 11:54:11;;;;;;;8.10;4.28;;;;;;;;;;5015873;28;20040;-71
2022/11/11 11:57:01;;;;;;;6.07;3.92;;;;;;;;;;5013179;28;20037;-71
2022/11/11 11:59:58;;;;;;;7.82;3.83;;;;;;;;;;5016471;28;20044;-71
2022/11/11 12:03:08;;;;;;;6.28;3.65;;;;;;;;;;5016409;28;20045;-71
2022/11/11 12:05:52;;;;;;;4.55;3.40;;;;;;;;;;5000664;28;20048;-71
2022/11/11 12:08:45;;;;;;;4.70;3.20;;;;;;;;;;5015897;28;20044;-73
2022/11/11 12:11:37;;;;;;;4.95;3.55;;;;;;;;;;5015516;28;20378;-73
2022/11/11 12:14:30;;;;;;;6.22;3.55;;;;;;;;;;5015244;28;20044;-73
2022/11/11 12:17:17;;;;;;;5.95;3.13;;;;;;;;;;5015434;28;20176;-73
2022/11/11 12:20:07;;;;;;;6.13;3.47;;;;;;;;;;5014832;28;20410;-73
2022/11/11 12:22:56;;;;;;;7.40;4.03;;;;;;;;;;5015336;28;20545;-71
2022/11/11 12:26:00;;;;;;;6.40;3.80;;;;;;;;;;5015261;28;20621;-71
2022/11/11 12:29:06;;;;;;;8.38;4.28;;;;;;;;;;5015783;28;20092;-71
2022/11/11 12:32:10;;;;;;;6.53;4.72;;;;;;;;;;5015820;28;20037;-71
2022/11/11 12:35:12;;;;;;;6.85;3.65;;;;;;;;;;4992931;28;20084;-71
2022/11/11 12:37:56;;;;;;;6.30;3.88;;;;;;;;;;5015480;28;20092;-71
2022/11/11 12:40:51;;;;;;;8.98;4.13;;;;;;;;;;5015752;28;20045;-71
2022/11/11 12:43:55;;;;;;;5.05;3.90;;;;;;;;;;5015913;28;20044;-71
2022/11/11 12:46:45;;;;;;;6.57;4.25;;;;;;;;;;5015834;28;20548;-71
2022/11/11 12:49:32;;;;;;;8.35;4.25;;;;;;;;;;5015587;28;20433;-71
2022/11/11 12:52:36;;;;;;;6.38;4.43;;;;;;;;;;5015213;28;20072;-71
2022/11/11 12:55:34;;;;;;;7.95;4.63;;;;;;;;;;5015435;28;20060;-71
2022/11/11 12:58:19;;;;;;;7.25;4.28;;;;;;;;;;5015341;28;20037;-71
2022/11/11 13:01:17;;;;;;;6.35;5.13;;;;;;;;;;5014610;28;20036;-71
2022/11/11 13:04:21;;;;;;;8.48;4.75;;;;;;;;;;5015571;28;20045;-71
2022/11/11 13:07:22;;;;;;;9.52;5.70;;;;;;;;;;5015285;28;20131;-71
2022/11/11 13:10:24;;;;;;;9.35;4.88;;;;;;;;;;5014894;28;20041;-71
2022/11/11 13:13:26;;;;;;;9.10;5.82;;;;;;;;;;5015119;28;20088;-71
2022/11/11 13:16:11;;;;;;;7.38;5.18;;;;;;;;;;5014900;28;20393;-71
2022/11/11 13:18:57;;;;;;;9.70;5.43;;;;;;;;;;5013785;28;20067;-71
2022/11/11 13:21:41;;;;;;;12.40;7.03;;;;;;;;;;5015235;28;20108;-71
2022/11/11 13:24:25;;;;;;;11.23;6.43;;;;;;;;;;5013932;28;20096;-71
2022/11/11 13:27:27;;;;;;;8.30;4.22;;;;;;;;;;5014611;28;20040;-71
2022/11/11 13:30:30;;;;;;;9.20;5.45;;;;;;;;;;5014291;28;20056;-71
2022/11/11 13:33:23;;;;;;;12.75;6.63;;;;;;;;;;5015072;28;20075;-71
2022/11/11 13:36:08;;;;;;;11.68;7.28;;;;;;;;;;5014469;28;20121;-71
2022/11/11 13:38:54;;;;;;;10.27;6.22;;;;;;;;;;5014687;28;20078;-71
2022/11/11 13:41:40;;;;;;;7.35;5.28;;;;;;;;;;5014362;28;20504;-71
2022/11/11 13:44:28;;;;;;;8.52;5.88;;;;;;;;;;5014638;28;20048;-71
2022/11/11 13:47:17;;;;;;;12.63;7.07;;;;;;;;;;5014369;28;20048;-71
2022/11/11 13:50:21;;;;;;;11.40;7.15;;;;;;;;;;5013345;28;20111;-71
2022/11/11 13:53:11;;;;;;;14.23;8.88;;;;;;;;;;5014792;28;20037;-74
2022/11/11 13:56:00;;;;;;;14.38;7.97;;;;;;;;;;5014546;28;20060;-74
2022/11/11 13:58:46;;;;;;;12.95;6.20;;;;;;;;;;5014742;28;20108;-73
2022/11/11 14:01:34;;;;;;;14.65;6.80;;;;;;;;;;5014668;28;20500;-73
2022/11/11 14:04:18;;;;;;;10.63;6.28;;;;;;;;;;5014368;28;20041;-73
2022/11/11 14:07:02;;;;;;;11.55;6.55;;;;;;;;;;5014372;28;20053;-73
2022/11/11 14:09:54;;;;;;;13.07;7.18;;;;;;;;;;5014118;28;20091;-74
2022/11/11 14:12:40;;;;;;;11.05;6.78;;;;;;;;;;5014031;28;20044;-73
2022/11/11 14:15:42;;;;;;;10.07;5.55;;;;;;;;;;5014560;28;20080;-74
2022/11/11 14:18:26;;;;;;;12.00;7.05;;;;;;;;;;5014243;28;20111;-74
2022/11/11 14:21:10;;;;;;;9.90;6.07;;;;;;;;;;5013234;28;20036;-74
2022/11/11 14:23:54;;;;;;;9.93;6.60;;;;;;;;;;5014519;28;20600;-74
2022/11/11 14:26:38;;;;;;;13.65;8.70;;;;;;;;;;5014422;28;20042;-73
2022/11/11 14:29:25;;;;;;;15.73;8.60;;;;;;;;;;5017661;28;20129;-74
2022/11/11 14:32:30;;;;;;;8.95;4.95;;;;;;;;;;5016638;28;20422;-74
2022/11/11 14:35:18;;;;;;;8.90;5.43;;;;;;;;;;5018114;28;20393;-73
2022/11/11 14:38:22;;;;;;;10.82;6.57;;;;;;;;;;5018116;28;20088;-75
2022/11/11 14:41:25;;;;;;;9.82;6.28;;;;;;;;;;5017787;28;20040;-75
2022/11/11 14:44:28;;;;;;;10.82;6.35;;;;;;;;;;5016956;28;20433;-73
2022/11/11 14:47:15;;;;;;;10.38;5.50;;;;;;;;;;5016491;28;20092;-73
2022/11/11 14:50:00;;;;;;;9.90;5.78;;;;;;;;;;5016211;28;20552;-73
2022/11/11 14:52:45;;;;;;;12.15;7.13;;;;;;;;;;5016561;28;20041;-73
2022/11/11 14:55:32;;;;;;;12.82;6.35;;;;;;;;;;5016188;28;20037;-73
2022/11/11 14:58:17;;;;;;;8.40;6.00;;;;;;;;;;5015200;28;20092;-73
2022/11/11 15:01:08;;;;;;;14.02;8.40;;;;;;;;;;5016125;28;20096;-72
2022/11/11 15:03:53;;;;;;;11.20;8.00;;;;;;;;;;5016358;28;20108;-72
2022/11/11 15:06:43;;;;;;;14.45;8.80;;;;;;;;;;5015830;28;20033;-72
2022/11/11 15:09:27;;;;;;;15.85;9.15;;;;;;;;;;5014601;28;20044;-72
2022/11/11 15:12:20;;;;;;;12.70;9.02;;;;;;;;;;5015748;28;20556;-72
2022/11/11 15:15:10;;;;;;;13.23;8.43;;;;;;;;;;5015717;28;20133;-72
2022/11/11 15:18:01;;;;;;;15.55;8.55;;;;;;;;;;5015908;28;20394;-72
2022/11/11 15:21:09;;;;;;;15.50;8.57;;;;;;;;;;5014836;28;20104;-72
2022/11/11 15:23:56;;;;;;;14.85;8.65;;;;;;;;;;5015772;28;20049;-72
2022/11/11 15:26:49;;;;;;;14.82;9.55;;;;;;;;;;5015276;28;20512;-72
2022/11/11 15:29:46;;;;;;;14.38;9.48;;;;;;;;;;5015706;28;20088;-71
2022/11/11 15:32:30;;;;;;;17.85;10.88;;;;;;;;;;5015161;28;20498;-71
2022/11/11 15:35:29;;;;;;;32.72;18.73;;;;;;;;;;5014726;28;20100;-71
2022/11/11 15:38:14;;;;;;;32.42;17.85;;;;;;;;;;5014900;28;20127;-71
2022/11/11 15:40:59;;;;;;;26.08;14.48;;;;;;;;;;5014898;28;20440;-71
2022/11/11 15:43:43;;;;;;;24.35;14.88;;;;;;;;;;5014955;28;20512;-71
2022/11/11 15:46:40;;;;;;;26.73;13.65;;;;;;;;;;5014415;28;20564;-71
2022/11/11 15:49:37;;;;;;;26.15;13.82;;;;;;;;;;5013966;28;20100;-71
2022/11/11 15:52:21;;;;;;;23.50;14.18;;;;;;;;;;5014784;28;20472;-71
2022/11/11 15:55:17;;;;;;;26.05;14.10;;;;;;;;;;5014557;28;20252;-71
2022/11/11 15:58:13;;;;;;;33.65;17.10;;;;;;;;;;5013304;28;20061;-71
2022/11/11 16:01:03;;;;;;;34.83;18.05;;;;;;;;;;5014209;28;20133;-72
2022/11/11 16:03:47;;;;;;;43.95;21.33;;;;;;;;;;5014562;28;20501;-72
2022/11/11 16:06:34;;;;;;;29.00;15.05;;;;;;;;;;5014467;28;20109;-72
2022/11/11 16:09:21;;;;;;;27.10;14.52;;;;;;;;;;5014640;28;20045;-72
2022/11/11 16:12:09;;;;;;;23.10;14.50;;;;;;;;;;5014944;28;20048;-72
2022/11/11 16:14:55;;;;;;;24.30;15.43;;;;;;;;;;5014674;28;20041;-72
2022/11/11 16:17:40;;;;;;;24.92;14.13;;;;;;;;;;5014547;28;20088;-72
2022/11/11 16:20:40;;;;;;;24.35;13.77;;;;;;;;;;5013215;28;20033;-72
2022/11/11 16:23:25;;;;;;;31.55;17.42;;;;;;;;;;5014034;28;20048;-72
2022/11/11 16:26:09;;;;;;;31.55;17.42;;;;;;;;;;5014388;28;20048;-73
2022/11/11 16:28:54;;;;;;;30.10;18.20;;;;;;;;;;5014384;28;20041;-73
2022/11/11 16:31:39;;;;;;;29.38;15.65;;;;;;;;;;5014427;28;20056;-73
2022/11/11 16:34:26;;;;;;;24.63;15.60;;;;;;;;;;5014366;28;20053;-73
2022/11/11 16:37:12;;;;;;;25.10;15.35;;;;;;;;;;5013400;28;20117;-73
2022/11/11 16:40:16;;;;;;;23.45;13.75;;;;;;;;;;5015076;28;20533;-73
2022/11/11 16:43:11;;;;;;;21.05;13.05;;;;;;;;;;5013648;28;20057;-72
2022/11/11 16:45:55;;;;;;;22.60;13.13;;;;;;;;;;5012644;28;20135;-73
2022/11/11 16:48:42;;;;;;;21.15;12.85;;;;;;;;;;5013415;28;20192;-73
2022/11/11 16:51:38;;;;;;;21.70;12.98;;;;;;;;;;5013208;28;20446;-73
2022/11/11 16:54:24;;;;;;;22.20;13.82;;;;;;;;;;5013771;28;20129;-72
2022/11/11 16:57:08;;;;;;;25.75;15.35;;;;;;;;;;5013868;28;20100;-72
2022/11/11 16:59:55;;;;;;;21.20;12.90;;;;;;;;;;5013228;28;20461;-73
2022/11/11 17:02:39;;;;;;;18.42;11.63;;;;;;;;;;5013997;28;20049;-73
2022/11/11 17:05:50;;;;;;;18.40;10.98;;;;;;;;;;5013737;28;20045;-72
2022/11/11 17:08:38;;;;;;;19.50;13.32;;;;;;;;;;5012835;28;20456;-73
2022/11/11 17:11:38;;;;;;;26.25;16.45;;;;;;;;;;5013724;28;20037;-72
2022/11/11 17:14:23;;;;;;;24.52;15.02;;;;;;;;;;5013828;28;20041;-72
2022/11/11 17:17:08;;;;;;;27.02;17.08;;;;;;;;;;5012169;28;20081;-72
2022/11/11 17:19:52;;;;;;;24.20;15.70;;;;;;;;;;5013696;28;20049;-73
2022/11/11 17:22:44;;;;;;;28.70;16.83;;;;;;;;;;5013519;28;20091;-73
2022/11/11 17:25:28;;;;;;;30.92;17.92;;;;;;;;;;5013277;28;20508;-73
2022/11/11 17:28:12;;;;;;;44.83;25.30;;;;;;;;;;5013698;28;20132;-73
2022/11/11 17:30:56;;;;;;;42.55;24.23;;;;;;;;;;5013447;28;20184;-72
2022/11/11 17:33:40;;;;;;;36.50;19.98;;;;;;;;;;5013399;28;20037;-72
2022/11/11 17:36:24;;;;;;;38.33;19.17;;;;;;;;;;5013177;28;20213;-73
2022/11/11 17:39:08;;;;;;;35.65;17.98;;;;;;;;;;5013119;28;20041;-73
2022/11/11 17:41:52;;;;;;;34.17;17.48;;;;;;;;;;5013228;28;20072;-73